createdAt,value
2023-04-19T00:02:11.205Z,4.93
2023-04-19T00:05:14.283Z,4.60
2023-04-19T00:08:16.858Z,11.68
2023-04-19T00:11:19.982Z,7.60
2023-04-19T00:14:22.651Z,9.25
2023-04-19T00:17:25.186Z,5.32
2023-04-19T00:20:28.171Z,6.32
2023-04-19T00:23:30.933Z,6.68
2023-04-19T00:26:33.612Z,5.63
2023-04-19T00:29:37.135Z,6.63
2023-04-19T00:32:41.081Z,5.10
2023-04-19T00:35:44.220Z,5.53
2023-04-19T00:38:48.903Z,6.18
2023-04-19T00:41:51.920Z,8.18
2023-04-19T00:44:54.848Z,8.18
2023-04-19T00:47:57.465Z,6.40
2023-04-19T00:51:00.448Z,8.20
2023-04-19T00:54:04.000Z,8.05
2023-04-19T00:57:06.842Z,9.47
2023-04-19T01:00:10.430Z,8.15
2023-04-19T01:03:13.671Z,7.45
2023-04-19T01:06:16.541Z,8.03
2023-04-19T01:09:19.316Z,8.45
2023-04-19T01:12:23.236Z,6.10
2023-04-19T01:15:26.460Z,8.43
2023-04-19T01:18:37.709Z,8.43
2023-04-19T01:21:42.815Z,7.45
2023-04-19T01:24:45.766Z,6.35
2023-04-19T01:27:48.692Z,8.53
2023-04-19T01:30:53.933Z,9.90
2023-04-19T01:33:56.714Z,7.05
2023-04-19T01:36:59.738Z,8.80
2023-04-19T01:40:05.532Z,7.68
2023-04-19T01:43:08.584Z,8.10
2023-04-19T01:46:11.293Z,9.40
2023-04-19T01:49:14.713Z,9.50
2023-04-19T01:52:18.740Z,8.98
2023-04-19T01:55:21.630Z,10.88
2023-04-19T01:58:24.149Z,9.80
2023-04-19T02:01:27.286Z,8.48
2023-04-19T02:04:29.912Z,11.02
2023-04-19T02:07:34.721Z,8.77
2023-04-19T02:10:37.224Z,9.25
2023-04-19T02:13:40.597Z,8.95
2023-04-19T02:16:43.593Z,10.38
2023-04-19T02:19:46.349Z,6.38
2023-04-19T02:22:49.242Z,9.32
2023-04-19T02:25:52.268Z,10.52
2023-04-19T02:28:55.013Z,8.83
2023-04-19T02:31:58.084Z,9.15
2023-04-19T02:35:01.009Z,8.38
2023-04-19T02:38:05.610Z,9.23
2023-04-19T02:41:08.066Z,9.25
2023-04-19T02:44:15.351Z,8.20
2023-04-19T02:47:19.496Z,11.40
2023-04-19T02:50:22.200Z,11.52
2023-04-19T02:53:26.763Z,8.65
2023-04-19T02:56:29.588Z,8.98
2023-04-19T02:59:33.009Z,8.93
2023-04-19T03:02:38.333Z,11.68
2023-04-19T03:05:42.270Z,10.60
2023-04-19T03:08:45.546Z,10.67
2023-04-19T03:11:48.074Z,8.57
2023-04-19T03:14:52.550Z,12.00
2023-04-19T03:17:55.457Z,9.07
2023-04-19T03:20:58.862Z,7.70
2023-04-19T03:24:05.384Z,10.80
2023-04-19T03:27:08.478Z,12.68
2023-04-19T03:30:12.960Z,10.53
2023-04-19T03:33:16.638Z,13.07
2023-04-19T03:36:19.168Z,10.55
2023-04-19T03:39:23.276Z,11.67
2023-04-19T03:42:31.129Z,12.18
2023-04-19T03:45:41.193Z,17.27
2023-04-19T03:48:44.017Z,12.95
2023-04-19T03:51:46.820Z,12.80
2023-04-19T03:54:49.330Z,12.07
2023-04-19T03:58:05.445Z,10.93
2023-04-19T04:01:22.503Z,15.53
2023-04-19T04:04:26.305Z,16.90
2023-04-19T04:07:30.372Z,12.10
2023-04-19T04:10:33.378Z,13.97
2023-04-19T04:13:36.373Z,14.27
2023-04-19T04:16:45.995Z,13.75
2023-04-19T04:19:50.432Z,16.10
2023-04-19T04:22:54.384Z,11.45
2023-04-19T04:26:00.759Z,14.75
2023-04-19T04:29:13.830Z,13.20
2023-04-19T04:32:23.228Z,18.30
2023-04-19T04:35:30.786Z,15.02
2023-04-19T04:38:42.019Z,15.00
2023-04-19T04:41:45.206Z,13.00
2023-04-19T04:44:47.993Z,17.33
2023-04-19T04:47:51.880Z,14.15
2023-04-19T04:50:55.530Z,14.57
2023-04-19T04:53:58.751Z,15.02
2023-04-19T04:57:02.897Z,15.18
2023-04-19T05:00:07.066Z,16.23
2023-04-19T05:03:18.239Z,13.77
2023-04-19T05:06:27.517Z,17.70
2023-04-19T05:09:30.498Z,29.13
2023-04-19T05:12:34.847Z,22.37
2023-04-19T05:15:37.867Z,18.67
2023-04-19T05:18:41.550Z,21.67
2023-04-19T05:21:44.733Z,17.67
2023-04-19T05:24:50.436Z,18.17
2023-04-19T05:27:53.948Z,15.75
2023-04-19T05:30:56.593Z,15.20
2023-04-19T05:34:02.556Z,15.27
2023-04-19T05:37:05.632Z,15.60
2023-04-19T05:40:10.343Z,17.85
2023-04-19T05:43:13.325Z,16.63
2023-04-19T05:46:16.261Z,18.05
2023-04-19T05:49:18.843Z,18.15
2023-04-19T05:52:38.577Z,15.93
2023-04-19T05:55:41.234Z,17.63
2023-04-19T05:58:43.786Z,15.20
2023-04-19T06:01:46.519Z,16.02
2023-04-19T06:04:49.656Z,15.40
2023-04-19T06:08:02.571Z,15.40
2023-04-19T06:11:15.756Z,15.55
2023-04-19T06:14:29.379Z,20.37
2023-04-19T06:17:32.407Z,17.60
2023-04-19T06:20:35.086Z,16.38
2023-04-19T06:23:37.924Z,12.52
2023-04-19T06:26:40.940Z,16.90
2023-04-19T06:29:43.550Z,15.18
2023-04-19T06:32:46.123Z,18.75
2023-04-19T06:35:48.635Z,14.10
2023-04-19T06:38:51.571Z,16.65
2023-04-19T06:41:54.214Z,14.13
2023-04-19T06:44:58.259Z,13.83
2023-04-19T06:48:00.995Z,15.60
2023-04-19T06:51:03.868Z,16.17
2023-04-19T06:54:06.600Z,15.95
2023-04-19T06:57:09.141Z,14.50
2023-04-19T07:00:12.255Z,13.20
2023-04-19T07:03:15.129Z,15.93
2023-04-19T07:06:18.057Z,18.33
2023-04-19T07:09:20.646Z,12.05
2023-04-19T07:12:23.323Z,12.75
2023-04-19T07:15:25.955Z,11.07
2023-04-19T07:18:28.611Z,13.90
2023-04-19T07:21:33.592Z,11.10
2023-04-19T07:24:36.191Z,11.20
2023-04-19T07:27:38.864Z,12.50
2023-04-19T07:30:41.618Z,13.18
2023-04-19T07:33:45.263Z,14.38
2023-04-19T07:36:47.999Z,11.73
2023-04-19T07:39:50.717Z,11.98
2023-04-19T07:42:55.537Z,10.57
2023-04-19T07:45:58.535Z,14.23
2023-04-19T07:49:01.062Z,11.68
2023-04-19T07:52:08.007Z,12.80
2023-04-19T07:55:10.961Z,12.40
2023-04-19T07:58:13.567Z,12.93
2023-04-19T08:01:16.342Z,11.20
2023-04-19T08:04:20.763Z,13.82
2023-04-19T08:07:24.160Z,11.43
2023-04-19T08:10:28.898Z,13.90
2023-04-19T08:13:31.668Z,10.40
2023-04-19T08:17:14.609Z,13.77
2023-04-19T08:19:57.275Z,13.98
2023-04-19T08:23:07.520Z,12.63
2023-04-19T08:26:16.922Z,9.15
2023-04-19T08:29:23.341Z,11.60
2023-04-19T08:32:26.250Z,15.82
2023-04-19T08:35:29.034Z,10.77
2023-04-19T08:38:32.070Z,10.90
2023-04-19T08:41:35.147Z,13.38
2023-04-19T08:44:53.836Z,9.52
2023-04-19T08:48:04.311Z,10.30
2023-04-19T08:51:07.582Z,9.07
2023-04-19T08:54:11.381Z,11.20
2023-04-19T08:57:15.145Z,9.20
2023-04-19T09:00:18.418Z,8.73
2023-04-19T09:03:21.222Z,10.35
2023-04-19T09:06:24.621Z,8.07
2023-04-19T09:12:37.703Z,9.65
2023-04-19T09:15:43.767Z,11.10
2023-04-19T09:19:15.315Z,9.40
2023-04-19T09:22:25.836Z,8.32
2023-04-19T09:25:49.250Z,7.85
2023-04-19T09:29:03.788Z,9.20
2023-04-19T09:32:07.046Z,9.90
2023-04-19T09:35:09.782Z,7.63
2023-04-19T09:38:12.463Z,8.00
2023-04-19T09:41:17.571Z,7.63
2023-04-19T09:44:53.041Z,7.95
2023-04-19T09:47:43.625Z,7.28
2023-04-19T09:51:10.569Z,7.57
2023-04-19T09:54:17.297Z,9.32
2023-04-19T09:57:19.918Z,6.90
2023-04-19T10:00:23.200Z,7.05
2023-04-19T10:03:30.442Z,7.47
2023-04-19T10:06:51.915Z,7.13
2023-04-19T10:10:11.756Z,7.35
2023-04-19T10:16:27.339Z,6.45
2023-04-19T10:19:31.458Z,8.05
2023-04-19T10:22:38.875Z,8.77
2023-04-19T10:25:47.862Z,5.38
2023-04-19T10:28:50.684Z,4.82
2023-04-19T10:31:53.588Z,6.95
2023-04-19T10:35:04.983Z,5.47
2023-04-19T10:38:16.557Z,8.55
2023-04-19T10:41:19.672Z,6.72
2023-04-19T10:44:22.675Z,7.93
2023-04-19T10:47:45.149Z,6.18
2023-04-19T10:51:19.576Z,6.50
2023-04-19T10:54:30.198Z,7.30
2023-04-19T10:58:02.860Z,6.55
2023-04-19T11:01:41.102Z,5.40
2023-04-19T11:04:58.079Z,3.78
2023-04-19T11:08:01.942Z,3.65
2023-04-19T11:11:04.633Z,3.65
2023-04-19T11:14:08.771Z,3.95
2023-04-19T11:17:16.702Z,4.60
2023-04-19T11:20:23.170Z,3.60
2023-04-19T11:23:26.252Z,4.80
2023-04-19T11:26:28.886Z,3.60
2023-04-19T11:29:31.510Z,4.65
2023-04-19T11:32:34.926Z,3.67
2023-04-19T11:35:37.526Z,3.38
2023-04-19T11:38:40.561Z,3.45
2023-04-19T11:41:43.343Z,3.42
2023-04-19T11:44:51.861Z,4.25
2023-04-19T11:47:54.570Z,3.33
2023-04-19T11:50:59.075Z,4.18
2023-04-19T11:54:01.668Z,4.68
2023-04-19T11:57:06.785Z,3.20
2023-04-19T12:00:12.114Z,5.35
2023-04-19T12:03:15.975Z,4.75
2023-04-19T12:06:22.562Z,3.22
2023-04-19T12:09:25.266Z,4.60
2023-04-19T12:12:34.107Z,5.35
2023-04-19T12:15:44.577Z,4.35
2023-04-19T12:18:50.028Z,3.43
2023-04-19T12:21:52.723Z,4.88
2023-04-19T12:24:56.068Z,3.42
2023-04-19T12:27:59.766Z,3.37
2023-04-19T12:31:02.327Z,6.68
2023-04-19T12:34:04.828Z,4.70
2023-04-19T12:37:07.469Z,5.55
2023-04-19T12:40:10.652Z,4.18
2023-04-19T12:43:13.269Z,4.75
2023-04-19T12:46:15.973Z,6.65
2023-04-19T12:49:20.094Z,6.40
2023-04-19T12:52:22.699Z,6.35
2023-04-19T12:55:25.583Z,5.32
2023-04-19T12:58:28.401Z,4.80
2023-04-19T13:01:32.386Z,4.63
2023-04-19T13:04:36.358Z,5.00
2023-04-19T13:07:39.243Z,5.70
2023-04-19T13:10:41.897Z,3.65
2023-04-19T13:13:44.814Z,4.47
2023-04-19T13:16:47.988Z,4.60
2023-04-19T13:19:51.079Z,5.97
2023-04-19T13:22:53.852Z,5.03
2023-04-19T13:25:56.716Z,5.28
2023-04-19T13:28:59.378Z,3.50
2023-04-19T13:32:02.024Z,3.33
2023-04-19T13:35:05.226Z,4.68
2023-04-19T13:38:07.786Z,3.83
2023-04-19T13:41:10.546Z,4.15
2023-04-19T13:44:13.301Z,5.38
2023-04-19T13:47:16.018Z,3.47
2023-04-19T13:50:18.602Z,3.53
2023-04-19T13:53:21.349Z,4.47
2023-04-19T13:56:23.877Z,4.45
2023-04-19T13:59:26.439Z,4.03
2023-04-19T14:02:29.284Z,7.55
2023-04-19T14:05:32.272Z,5.10
2023-04-19T14:08:35.406Z,4.28
2023-04-19T14:11:39.079Z,3.80
2023-04-19T14:14:41.881Z,5.93
2023-04-19T14:17:44.467Z,4.13
2023-04-19T14:20:47.349Z,4.67
2023-04-19T14:23:49.975Z,3.70
2023-04-19T14:27:03.561Z,4.93
2023-04-19T14:30:12.496Z,3.90
2023-04-19T14:33:15.246Z,4.90
2023-04-19T14:36:17.931Z,3.10
2023-04-19T14:39:20.487Z,4.05
2023-04-19T14:42:23.246Z,6.00
2023-04-19T14:45:26.516Z,3.80
2023-04-19T14:48:29.549Z,4.32
2023-04-19T14:51:32.756Z,4.67
2023-04-19T14:54:35.391Z,3.90
2023-04-19T14:57:37.904Z,7.82
2023-04-19T15:00:41.070Z,3.37
2023-04-19T15:03:44.456Z,3.38
2023-04-19T15:06:47.333Z,3.25
2023-04-19T15:09:50.280Z,3.40
2023-04-19T15:12:52.910Z,3.42
2023-04-19T15:15:56.064Z,5.10
2023-04-19T15:18:58.759Z,4.80
2023-04-19T15:22:03.953Z,3.03
2023-04-19T15:25:07.322Z,3.17
2023-04-19T15:28:09.978Z,2.95
2023-04-19T15:31:12.872Z,3.97
2023-04-19T15:34:15.308Z,4.20
2023-04-19T15:37:18.082Z,4.43
2023-04-19T15:40:21.401Z,2.20
2023-04-19T15:43:24.989Z,3.65
2023-04-19T15:46:27.661Z,2.50
2023-04-19T15:49:30.797Z,3.22
2023-04-19T15:52:33.642Z,3.10
2023-04-19T15:55:36.614Z,2.83
2023-04-19T15:58:39.755Z,4.50
2023-04-19T16:01:42.748Z,3.77
2023-04-19T16:04:48.562Z,5.95
2023-04-19T16:08:09.331Z,3.25
2023-04-19T16:11:11.937Z,3.22
2023-04-19T16:14:14.736Z,3.78
2023-04-19T16:17:17.201Z,4.40
2023-04-19T16:20:20.685Z,4.20
2023-04-19T16:23:24.421Z,3.83
2023-04-19T16:26:27.307Z,4.38
2023-04-19T16:29:30.800Z,2.92
2023-04-19T16:32:33.777Z,4.93
2023-04-19T16:35:36.236Z,3.33
2023-04-19T16:38:39.214Z,3.30
2023-04-19T16:41:41.890Z,4.32
2023-04-19T16:44:44.486Z,2.80
2023-04-19T16:47:48.191Z,8.95
2023-04-19T16:50:51.634Z,6.45
2023-04-19T16:53:54.862Z,4.53
2023-04-19T16:56:58.059Z,4.03
2023-04-19T17:00:01.038Z,5.88
2023-04-19T17:03:04.298Z,5.70
2023-04-19T17:06:07.097Z,7.90
2023-04-19T17:09:10.535Z,5.30
2023-04-19T17:12:13.214Z,5.78
2023-04-19T17:15:16.709Z,5.03
2023-04-19T17:18:19.364Z,4.63
2023-04-19T17:21:22.137Z,5.22
2023-04-19T17:24:24.800Z,4.43
2023-04-19T17:27:27.943Z,8.52
2023-04-19T17:30:30.751Z,24.65
2023-04-19T17:33:33.485Z,10.33
2023-04-19T17:36:36.377Z,5.20
2023-04-19T17:39:39.944Z,8.32
2023-04-19T17:42:43.086Z,6.43
2023-04-19T17:45:45.912Z,5.22
2023-04-19T17:48:48.705Z,5.50
2023-04-19T17:51:53.379Z,8.63
2023-04-19T17:54:56.238Z,11.53
2023-04-19T17:57:59.845Z,10.10
2023-04-19T18:01:03.448Z,27.95
2023-04-19T18:04:07.347Z,12.70
2023-04-19T18:07:10.061Z,9.50
2023-04-19T18:10:13.105Z,21.80
2023-04-19T18:13:15.795Z,47.83
2023-04-19T18:16:19.661Z,70.07
2023-04-19T18:19:24.016Z,62.03
2023-04-19T18:22:27.191Z,31.52
2023-04-19T18:25:30.248Z,16.17
2023-04-19T18:28:35.592Z,9.43
2023-04-19T18:31:38.600Z,10.27
2023-04-19T18:34:42.081Z,10.07
2023-04-19T18:37:44.843Z,9.30
2023-04-19T18:40:48.444Z,11.68
2023-04-19T18:44:19.212Z,17.20
2023-04-19T18:47:14.542Z,10.13
2023-04-19T18:50:19.127Z,12.70
2023-04-19T18:53:22.218Z,11.18
2023-04-19T18:56:56.101Z,10.97
2023-04-19T18:59:48.416Z,10.98
2023-04-19T19:02:52.889Z,9.88
2023-04-19T19:05:56.680Z,9.07
2023-04-19T19:09:00.671Z,12.30
2023-04-19T19:12:04.099Z,26.00
2023-04-19T19:15:07.806Z,47.25
2023-04-19T19:18:10.740Z,18.58
2023-04-19T19:21:13.800Z,16.75
2023-04-19T19:24:16.967Z,24.73
2023-04-19T19:27:19.888Z,16.37
2023-04-19T19:30:23.496Z,13.00
2023-04-19T19:33:28.769Z,8.80
2023-04-19T19:36:32.452Z,9.77
2023-04-19T19:39:35.665Z,7.97
2023-04-19T19:42:41.393Z,8.88
2023-04-19T19:45:44.261Z,9.00
2023-04-19T19:51:58.655Z,12.38
2023-04-19T19:55:02.689Z,9.57
2023-04-19T20:01:11.534Z,9.70
2023-04-19T20:04:15.024Z,8.38
2023-04-19T20:07:37.397Z,9.40
2023-04-19T20:10:43.550Z,9.82
2023-04-19T20:13:46.630Z,8.98
2023-04-19T20:16:49.920Z,9.48
2023-04-19T20:19:52.875Z,9.55
2023-04-19T20:22:56.262Z,10.60
2023-04-19T20:26:01.361Z,10.77
2023-04-19T20:29:04.428Z,9.83
2023-04-19T20:32:08.685Z,11.90
2023-04-19T20:35:12.483Z,8.70
2023-04-19T20:38:15.721Z,12.13
2023-04-19T20:41:19.392Z,8.63
2023-04-19T20:44:23.293Z,10.20
2023-04-19T20:47:26.342Z,8.55
2023-04-19T20:50:29.289Z,10.77
2023-04-19T20:53:32.467Z,11.95
2023-04-19T20:56:35.547Z,14.05
2023-04-19T20:59:39.369Z,10.10
2023-04-19T21:02:42.367Z,13.93
2023-04-19T21:05:44.891Z,11.35
2023-04-19T21:08:47.793Z,12.80
2023-04-19T21:11:50.318Z,10.60
2023-04-19T21:14:53.775Z,10.82
2023-04-19T21:17:56.443Z,11.43
2023-04-19T21:20:59.312Z,10.40
2023-04-19T21:24:08.669Z,8.63
2023-04-19T21:27:11.416Z,8.73
2023-04-19T21:30:14.268Z,9.80
2023-04-19T21:33:18.362Z,8.63
2023-04-19T21:36:20.971Z,8.68
2023-04-19T21:39:23.944Z,8.47
2023-04-19T21:42:26.336Z,9.13
2023-04-19T21:45:29.131Z,8.50
2023-04-19T21:48:31.971Z,9.05
2023-04-19T21:51:34.603Z,8.65
2023-04-19T21:54:37.409Z,9.98
2023-04-19T21:57:40.093Z,10.02
2023-04-19T22:00:43.017Z,9.47
2023-04-19T22:03:46.715Z,8.25
2023-04-19T22:06:49.561Z,9.70
2023-04-19T22:09:52.626Z,8.30
2023-04-19T22:12:58.836Z,9.80
2023-04-19T22:16:02.770Z,10.25
2023-04-19T22:19:05.888Z,8.45
2023-04-19T22:22:08.616Z,8.70
2023-04-19T22:25:11.445Z,9.60
2023-04-19T22:28:14.316Z,9.68
2023-04-19T22:31:16.922Z,11.83
2023-04-19T22:34:19.907Z,10.93
2023-04-19T22:37:22.910Z,10.05
2023-04-19T22:40:25.561Z,10.40
2023-04-19T22:43:28.483Z,8.63
2023-04-19T22:46:31.333Z,10.50
2023-04-19T22:49:33.794Z,11.15
2023-04-19T22:52:37.581Z,9.15
2023-04-19T22:55:40.561Z,10.55
2023-04-19T22:58:43.756Z,8.35
2023-04-19T23:01:46.533Z,9.73
2023-04-19T23:04:50.012Z,8.63
2023-04-19T23:07:53.334Z,9.98
2023-04-19T23:10:56.517Z,10.93
2023-04-19T23:13:59.314Z,10.20
2023-04-19T23:17:03.093Z,9.32
2023-04-19T23:20:09.502Z,11.73
2023-04-19T23:23:12.282Z,10.38
2023-04-19T23:26:15.303Z,9.90
2023-04-19T23:29:18.162Z,8.98
2023-04-19T23:32:21.327Z,11.47
2023-04-19T23:35:24.282Z,10.00
2023-04-19T23:38:26.724Z,9.95
2023-04-19T23:41:29.421Z,10.03
2023-04-19T23:44:31.897Z,10.93
2023-04-19T23:47:34.770Z,10.70
2023-04-19T23:50:37.651Z,10.80
2023-04-19T23:53:40.749Z,11.07
2023-04-19T23:56:45.421Z,11.65
2023-04-19T23:59:48.521Z,10.82
